createdAt,value
2018-10-17T00:02:27.669Z,99.90
2018-10-17T00:04:56.879Z,99.90
2018-10-17T00:07:25.932Z,99.90
2018-10-17T00:09:54.471Z,99.90
2018-10-17T00:12:23.334Z,99.90
2018-10-17T00:14:51.872Z,99.90
2018-10-17T00:17:20.733Z,99.90
2018-10-17T00:19:49.590Z,99.90
2018-10-17T00:22:18.758Z,99.90
2018-10-17T00:24:47.279Z,99.90
2018-10-17T00:27:16.120Z,99.90
2018-10-17T00:29:44.670Z,99.90
2018-10-17T00:32:13.521Z,99.90
2018-10-17T00:34:42.386Z,99.90
2018-10-17T00:37:11.622Z,99.90
2018-10-17T00:39:40.605Z,99.90
2018-10-17T00:42:09.448Z,99.90
2018-10-17T00:44:37.939Z,99.90
2018-10-17T00:47:06.818Z,99.90
2018-10-17T00:49:35.508Z,99.90
2018-10-17T00:52:04.340Z,99.90
2018-10-17T00:54:33.169Z,99.90
2018-10-17T00:57:01.674Z,99.90
2018-10-17T00:59:30.220Z,99.90
2018-10-17T01:01:59.074Z,99.90
2018-10-17T01:04:27.601Z,99.90
2018-10-17T01:06:56.153Z,99.90
2018-10-17T01:09:24.807Z,99.90
2018-10-17T01:11:54.022Z,99.90
2018-10-17T01:14:22.521Z,99.90
2018-10-17T01:16:51.404Z,99.90
2018-10-17T01:19:20.083Z,99.90
2018-10-17T01:21:48.911Z,99.90
2018-10-17T01:24:18.068Z,99.90
2018-10-17T01:26:47.252Z,99.90
2018-10-17T01:29:15.879Z,99.90
2018-10-17T01:31:44.509Z,99.90
2018-10-17T01:34:13.023Z,99.90
2018-10-17T01:36:41.526Z,99.90
2018-10-17T01:39:11.339Z,99.90
2018-10-17T01:41:39.899Z,99.90
2018-10-17T01:44:09.229Z,99.90
2018-10-17T01:46:38.392Z,99.90
2018-10-17T01:49:07.333Z,99.90
2018-10-17T01:51:35.975Z,99.90
2018-10-17T01:54:04.464Z,99.90
2018-10-17T01:56:33.296Z,99.90
2018-10-17T01:59:02.559Z,99.90
2018-10-17T02:01:31.509Z,99.90
2018-10-17T02:04:00.368Z,99.90
2018-10-17T02:06:28.883Z,99.90
2018-10-17T02:08:57.744Z,99.90
2018-10-17T02:11:26.244Z,99.90
2018-10-17T02:13:55.120Z,99.90
2018-10-17T02:16:24.152Z,99.90
2018-10-17T02:18:53.011Z,99.90
2018-10-17T02:21:21.510Z,99.90
2018-10-17T02:23:50.017Z,99.90
2018-10-17T02:26:18.540Z,99.90
2018-10-17T02:28:47.053Z,99.90
2018-10-17T02:31:15.576Z,99.90
2018-10-17T02:33:44.257Z,99.90
2018-10-17T02:36:12.774Z,99.90
2018-10-17T02:38:41.615Z,99.90
2018-10-17T02:41:10.523Z,99.90
2018-10-17T02:43:39.156Z,99.90
2018-10-17T02:46:07.996Z,99.90
2018-10-17T02:48:36.528Z,99.90
2018-10-17T02:51:05.040Z,99.90
2018-10-17T02:53:33.549Z,99.90
2018-10-17T02:56:02.393Z,99.90
2018-10-17T02:58:30.938Z,99.90
2018-10-17T03:01:00.159Z,99.90
2018-10-17T03:03:28.823Z,99.90
2018-10-17T03:05:57.709Z,99.90
2018-10-17T03:08:26.221Z,99.90
2018-10-17T03:10:54.785Z,99.90
2018-10-17T03:13:23.528Z,99.90
2018-10-17T03:15:52.029Z,99.90
2018-10-17T03:18:20.884Z,99.90
2018-10-17T03:20:49.435Z,99.90
2018-10-17T03:23:18.479Z,99.90
2018-10-17T03:25:48.085Z,99.90
2018-10-17T03:28:16.608Z,99.90
2018-10-17T03:30:45.280Z,99.90
2018-10-17T03:33:13.780Z,99.90
2018-10-17T03:35:42.962Z,99.90
2018-10-17T03:38:11.668Z,99.90
2018-10-17T03:40:40.510Z,99.90
2018-10-17T03:43:09.081Z,99.90
2018-10-17T03:45:38.073Z,99.90
2018-10-17T03:48:06.589Z,99.90
2018-10-17T03:50:35.127Z,99.90
2018-10-17T03:53:03.823Z,99.90
2018-10-17T03:55:32.446Z,99.90
2018-10-17T03:58:01.621Z,99.90
2018-10-17T04:00:30.492Z,99.90
2018-10-17T04:02:59.688Z,99.90
2018-10-17T04:05:48.217Z,99.90
2018-10-17T04:08:16.716Z,99.90
2018-10-17T04:10:45.195Z,99.90
2018-10-17T04:13:13.788Z,99.90
2018-10-17T04:15:42.431Z,99.90
2018-10-17T04:18:11.265Z,99.90
2018-10-17T04:20:40.551Z,99.90
2018-10-17T04:23:09.953Z,99.90
2018-10-17T04:25:38.942Z,99.90
2018-10-17T04:28:07.983Z,99.90
2018-10-17T04:30:36.839Z,99.90
2018-10-17T04:33:05.852Z,99.90
2018-10-17T04:35:34.682Z,99.90
2018-10-17T04:38:03.196Z,99.90
2018-10-17T04:40:31.681Z,99.90
2018-10-17T04:44:24.420Z,99.90
2018-10-17T04:46:53.263Z,99.90
2018-10-17T04:49:21.941Z,99.90
2018-10-17T04:51:50.463Z,99.90
2018-10-17T04:54:19.309Z,99.90
2018-10-17T04:56:47.889Z,99.90
2018-10-17T04:59:16.487Z,99.90
2018-10-17T05:01:45.202Z,99.90
2018-10-17T05:04:13.725Z,99.90
2018-10-17T05:06:42.334Z,99.90
2018-10-17T05:09:11.348Z,99.90
2018-10-17T05:11:40.581Z,99.90
2018-10-17T05:14:09.444Z,99.90
2018-10-17T05:16:37.989Z,99.90
2018-10-17T05:19:06.528Z,99.90
2018-10-17T05:21:35.632Z,99.90
2018-10-17T05:24:04.617Z,99.90
2018-10-17T05:26:33.191Z,99.90
2018-10-17T05:29:01.791Z,99.90
2018-10-17T05:31:32.466Z,99.90
2018-10-17T05:34:01.075Z,99.90
2018-10-17T05:36:29.927Z,99.90
2018-10-17T05:38:58.837Z,99.90
2018-10-17T05:41:27.762Z,99.90
2018-10-17T05:43:56.328Z,99.90
2018-10-17T05:46:24.952Z,99.90
2018-10-17T05:48:53.501Z,99.90
2018-10-17T05:51:22.125Z,99.90
2018-10-17T05:53:50.652Z,99.90
2018-10-17T05:56:19.506Z,99.90
2018-10-17T05:58:48.045Z,99.90
2018-10-17T06:01:17.003Z,99.90
2018-10-17T06:03:45.601Z,99.90
2018-10-17T06:06:14.101Z,99.90
2018-10-17T06:08:43.142Z,99.90
2018-10-17T06:11:12.073Z,99.90
2018-10-17T06:13:41.021Z,99.90
2018-10-17T06:16:10.320Z,99.90
2018-10-17T06:18:38.871Z,99.90
2018-10-17T06:21:07.387Z,99.90
2018-10-17T06:23:36.036Z,99.90
2018-10-17T06:26:04.730Z,99.90
2018-10-17T06:28:33.606Z,99.90
2018-10-17T06:31:02.603Z,99.90
2018-10-17T06:33:31.881Z,99.90
2018-10-17T06:36:01.008Z,99.90
2018-10-17T06:38:29.533Z,99.90
2018-10-17T06:40:58.504Z,99.90
2018-10-17T06:43:27.330Z,99.90
2018-10-17T06:45:56.743Z,99.90
2018-10-17T06:48:25.565Z,99.90
2018-10-17T06:50:54.081Z,99.90
2018-10-17T06:53:23.523Z,99.90
2018-10-17T06:55:52.084Z,99.90
2018-10-17T06:58:20.944Z,99.90
2018-10-17T07:00:50.361Z,99.90
2018-10-17T07:03:19.265Z,99.90
2018-10-17T07:05:47.811Z,99.90
2018-10-17T07:08:16.692Z,99.90
2018-10-17T07:10:45.362Z,99.90
2018-10-17T07:20:13.036Z,99.90
2018-10-17T07:22:41.560Z,99.90
2018-10-17T07:25:10.465Z,99.90
2018-10-17T07:27:39.191Z,99.90
2018-10-17T07:30:08.772Z,99.90
2018-10-17T07:34:02.149Z,99.90
2018-10-17T07:36:30.995Z,99.90
2018-10-17T07:38:59.837Z,99.90
2018-10-17T07:41:28.354Z,99.90
2018-10-17T07:43:57.236Z,99.90
2018-10-17T07:46:26.376Z,99.90
2018-10-17T07:48:54.960Z,99.90
2018-10-17T07:51:23.468Z,99.90
2018-10-17T07:53:52.656Z,99.90
2018-10-17T07:56:25.608Z,99.90
2018-10-17T07:58:55.121Z,99.90
2018-10-17T08:01:25.013Z,99.90
2018-10-17T08:03:53.957Z,99.90
2018-10-17T08:06:22.570Z,99.90
2018-10-17T08:08:51.638Z,99.90
2018-10-17T08:11:20.848Z,99.90
2018-10-17T08:13:49.832Z,99.90
2018-10-17T08:16:19.168Z,99.90
2018-10-17T08:18:47.775Z,99.90
2018-10-17T08:21:17.004Z,99.90
2018-10-17T08:23:45.659Z,99.90
2018-10-17T08:26:14.497Z,99.90
2018-10-17T08:28:43.679Z,99.90
2018-10-17T08:31:12.192Z,99.90
2018-10-17T08:33:40.747Z,99.90
2018-10-17T08:36:09.319Z,99.90
2018-10-17T08:38:38.659Z,99.90
2018-10-17T08:41:07.262Z,99.90
2018-10-17T08:46:19.590Z,99.90
2018-10-17T08:48:49.558Z,99.90
2018-10-17T08:51:18.068Z,99.90
2018-10-17T08:53:46.624Z,99.90
2018-10-17T08:56:16.217Z,99.90
2018-10-17T08:58:44.606Z,99.90
2018-10-17T09:01:13.321Z,99.70
2018-10-17T09:03:42.421Z,98.90
2018-10-17T09:06:11.930Z,98.60
2018-10-17T09:08:41.326Z,98.40
2018-10-17T09:11:11.357Z,98.10
2018-10-17T09:13:40.265Z,97.60
2018-10-17T09:16:09.182Z,97.10
2018-10-17T09:18:39.024Z,96.20
2018-10-17T09:21:08.820Z,95.80
2018-10-17T09:23:37.156Z,95.90
2018-10-17T09:26:06.410Z,95.50
2018-10-17T09:28:34.916Z,95.20
2018-10-17T09:31:03.817Z,95.00
2018-10-17T09:33:33.042Z,93.70
2018-10-17T09:36:01.935Z,93.40
2018-10-17T09:38:30.661Z,93.50
2018-10-17T09:40:59.529Z,93.40
2018-10-17T09:43:28.070Z,92.90
2018-10-17T09:45:57.208Z,92.80
2018-10-17T09:48:25.897Z,92.30
2018-10-17T09:50:54.440Z,92.00
2018-10-17T09:53:23.022Z,91.60
2018-10-17T09:55:53.245Z,90.50
2018-10-17T09:58:22.101Z,90.10
2018-10-17T10:00:56.197Z,90.00
2018-10-17T10:03:24.749Z,89.60
2018-10-17T10:05:53.699Z,89.70
2018-10-17T10:08:22.850Z,89.10
2018-10-17T10:10:51.711Z,88.70
2018-10-17T10:13:20.630Z,87.80
2018-10-17T10:15:49.148Z,84.10
2018-10-17T10:18:18.371Z,85.10
2018-10-17T10:20:47.226Z,85.30
2018-10-17T10:23:16.160Z,85.10
2018-10-17T10:25:44.805Z,83.50
2018-10-17T10:28:13.713Z,82.90
2018-10-17T10:30:42.997Z,83.20
2018-10-17T10:33:11.879Z,82.70
2018-10-17T10:35:41.374Z,81.90
2018-10-17T10:38:10.266Z,80.80
2018-10-17T10:40:39.167Z,80.30
2018-10-17T10:43:08.195Z,80.40
2018-10-17T10:45:36.806Z,79.90
2018-10-17T10:48:06.319Z,79.50
2018-10-17T10:50:34.697Z,79.20
2018-10-17T10:53:03.939Z,79.50
2018-10-17T10:55:32.772Z,78.50
2018-10-17T10:58:02.025Z,77.60
2018-10-17T11:00:31.043Z,77.40
2018-10-17T11:02:59.618Z,77.00
2018-10-17T11:05:28.772Z,76.10
2018-10-17T11:07:57.773Z,74.40
2018-10-17T11:10:26.880Z,75.00
2018-10-17T11:12:55.769Z,74.30
2018-10-17T11:15:24.615Z,74.00
2018-10-17T11:17:53.873Z,74.10
2018-10-17T11:20:22.737Z,74.20
2018-10-17T11:23:08.302Z,73.60
2018-10-17T11:25:37.821Z,72.70
2018-10-17T11:28:08.578Z,72.50
2018-10-17T11:30:37.101Z,72.00
2018-10-17T11:33:06.391Z,71.90
2018-10-17T11:35:35.437Z,71.60
2018-10-17T11:38:04.362Z,70.80
2018-10-17T11:40:33.469Z,69.50
2018-10-17T11:43:02.253Z,69.60
2018-10-17T11:45:30.815Z,70.10
2018-10-17T11:47:59.704Z,70.10
2018-10-17T11:50:28.311Z,70.30
2018-10-17T11:52:57.188Z,69.60
2018-10-17T11:55:25.824Z,69.50
2018-10-17T11:57:54.350Z,69.70
2018-10-17T12:00:23.204Z,69.70
2018-10-17T12:02:51.811Z,69.50
2018-10-17T12:05:20.987Z,69.80
2018-10-17T12:07:50.161Z,69.80
2018-10-17T12:10:19.035Z,70.00
2018-10-17T12:12:47.879Z,69.80
2018-10-17T12:15:16.835Z,70.10
2018-10-17T12:17:47.640Z,70.10
2018-10-17T12:20:16.489Z,69.10
2018-10-17T12:22:46.292Z,69.60
2018-10-17T12:25:15.620Z,69.20
2018-10-17T12:27:44.531Z,69.20
2018-10-17T12:30:14.607Z,70.00
2018-10-17T12:32:43.577Z,70.90
2018-10-17T12:35:12.900Z,70.40
2018-10-17T12:37:42.025Z,70.80
2018-10-17T12:40:12.275Z,70.10
2018-10-17T12:42:41.814Z,70.60
2018-10-17T12:45:10.706Z,70.90
2018-10-17T12:47:39.775Z,71.00
2018-10-17T12:50:09.219Z,70.90
2018-10-17T12:52:38.848Z,70.10
2018-10-17T12:55:07.774Z,71.00
2018-10-17T12:57:36.298Z,71.30
2018-10-17T13:00:05.716Z,71.10
2018-10-17T13:02:34.498Z,70.50
2018-10-17T13:05:03.419Z,70.60
2018-10-17T13:07:32.433Z,70.10
2018-10-17T13:10:01.058Z,70.10
2018-10-17T13:12:29.887Z,70.30
2018-10-17T13:14:58.521Z,70.70
2018-10-17T13:17:27.492Z,71.40
2018-10-17T13:19:56.493Z,71.90
2018-10-17T13:22:25.336Z,72.20
2018-10-17T13:24:53.932Z,72.10
2018-10-17T13:27:22.643Z,71.70
2018-10-17T13:29:51.903Z,71.80
2018-10-17T13:32:20.780Z,72.00
2018-10-17T13:34:49.695Z,72.20
2018-10-17T13:37:18.356Z,72.50
2018-10-17T13:39:47.044Z,72.60
2018-10-17T13:42:16.789Z,72.60
2018-10-17T13:44:45.692Z,73.00
2018-10-17T13:47:14.582Z,73.00
2018-10-17T13:49:47.201Z,73.10
2018-10-17T13:52:16.177Z,73.20
2018-10-17T13:54:44.765Z,73.30
2018-10-17T13:57:13.567Z,73.30
2018-10-17T13:59:42.191Z,73.00
2018-10-17T14:02:11.240Z,73.00
2018-10-17T14:04:39.787Z,73.10
2018-10-17T14:07:08.355Z,73.10
2018-10-17T14:09:37.437Z,72.60
2018-10-17T14:12:07.070Z,72.40
2018-10-17T14:14:35.726Z,72.40
2018-10-17T14:17:04.353Z,72.30
2018-10-17T14:19:33.239Z,72.10
2018-10-17T14:22:02.088Z,71.70
2018-10-17T14:24:30.678Z,71.30
2018-10-17T14:26:59.267Z,70.90
2018-10-17T14:29:28.373Z,70.10
2018-10-17T14:31:57.386Z,69.80
2018-10-17T14:34:26.453Z,69.00
2018-10-17T14:36:55.661Z,68.30
2018-10-17T14:39:24.317Z,67.60
2018-10-17T14:41:53.281Z,66.90
2018-10-17T14:44:21.996Z,66.00
2018-10-17T14:46:51.143Z,65.00
2018-10-17T14:49:20.393Z,64.10
2018-10-17T14:51:48.919Z,63.50
2018-10-17T14:54:17.769Z,63.20
2018-10-17T14:56:46.323Z,63.00
2018-10-17T14:59:14.738Z,62.70
2018-10-17T15:01:44.378Z,62.60
2018-10-17T15:04:15.657Z,63.10
2018-10-17T15:06:44.233Z,62.90
2018-10-17T15:09:12.771Z,63.00
2018-10-17T15:11:41.568Z,63.10
2018-10-17T15:14:09.997Z,63.20
2018-10-17T15:16:38.461Z,63.60
2018-10-17T15:19:07.117Z,63.70
2018-10-17T15:21:35.969Z,64.20
2018-10-17T15:24:04.628Z,64.50
2018-10-17T15:26:33.101Z,64.60
2018-10-17T15:29:01.440Z,65.20
2018-10-17T15:31:30.227Z,66.00
2018-10-17T15:33:59.029Z,66.90
2018-10-17T15:36:27.684Z,67.70
2018-10-17T15:38:56.249Z,68.70
2018-10-17T15:41:24.914Z,69.10
2018-10-17T15:43:53.912Z,69.90
2018-10-17T15:46:22.950Z,70.50
2018-10-17T15:48:51.474Z,71.20
2018-10-17T15:51:20.344Z,72.20
2018-10-17T15:55:13.350Z,72.70
2018-10-17T15:57:42.189Z,73.60
2018-10-17T16:00:11.463Z,74.50
2018-10-17T16:02:40.636Z,75.20
2018-10-17T16:05:10.791Z,76.00
2018-10-17T16:07:39.682Z,76.60
2018-10-17T16:10:09.261Z,77.00
2018-10-17T16:12:38.759Z,77.50
2018-10-17T16:15:08.781Z,78.10
2018-10-17T16:17:37.296Z,78.60
2018-10-17T16:20:07.717Z,79.20
2018-10-17T16:22:36.494Z,79.20
2018-10-17T16:25:05.941Z,80.20
2018-10-17T16:27:34.789Z,80.70
2018-10-17T16:30:03.820Z,81.30
2018-10-17T16:32:33.193Z,81.60
2018-10-17T16:35:02.080Z,82.10
2018-10-17T16:37:30.690Z,82.50
2018-10-17T16:39:58.988Z,82.80
2018-10-17T16:42:28.201Z,83.10
2018-10-17T16:44:56.977Z,84.10
2018-10-17T16:47:25.569Z,83.60
2018-10-17T16:49:54.549Z,83.80
2018-10-17T16:52:23.482Z,84.40
2018-10-17T16:54:53.811Z,84.80
2018-10-17T16:57:22.329Z,85.00
2018-10-17T16:59:50.912Z,84.90
2018-10-17T17:02:20.566Z,85.00
2018-10-17T17:04:49.661Z,85.20
2018-10-17T17:07:18.197Z,85.40
2018-10-17T17:09:48.456Z,86.00
2018-10-17T17:12:17.464Z,85.90
2018-10-17T17:14:46.732Z,86.10
2018-10-17T17:17:16.428Z,86.10
2018-10-17T17:19:46.157Z,86.20
2018-10-17T17:22:15.154Z,86.20
2018-10-17T17:24:43.881Z,86.80
2018-10-17T17:27:14.186Z,87.40
2018-10-17T17:29:44.210Z,87.60
2018-10-17T17:32:17.619Z,88.00
2018-10-17T17:34:47.538Z,88.90
2018-10-17T17:37:17.419Z,90.00
2018-10-17T17:39:47.468Z,90.30
2018-10-17T17:42:23.915Z,90.60
2018-10-17T17:44:53.681Z,91.00
2018-10-17T17:47:23.341Z,91.30
2018-10-17T17:49:52.258Z,91.50
2018-10-17T17:52:22.246Z,91.40
2018-10-17T17:54:50.841Z,92.20
2018-10-17T17:57:19.524Z,92.50
2018-10-17T17:59:48.961Z,92.90
2018-10-17T18:02:17.813Z,93.10
2018-10-17T18:04:47.290Z,93.40
2018-10-17T18:07:16.204Z,93.50
2018-10-17T18:09:45.072Z,94.00
2018-10-17T18:12:13.953Z,94.20
2018-10-17T18:14:46.194Z,94.50
2018-10-17T18:17:14.777Z,94.90
2018-10-17T18:19:43.448Z,95.20
2018-10-17T18:22:14.313Z,95.40
2018-10-17T18:24:43.061Z,95.70
2018-10-17T18:27:11.948Z,95.90
2018-10-17T18:29:40.861Z,96.10
2018-10-17T18:32:10.069Z,96.30
2018-10-17T18:34:38.769Z,96.50
2018-10-17T18:37:10.370Z,96.70
2018-10-17T18:39:39.206Z,97.00
2018-10-17T18:42:07.826Z,97.20
2018-10-17T18:44:36.501Z,97.40
2018-10-17T18:47:05.575Z,97.30
2018-10-17T18:49:34.382Z,97.80
2018-10-17T18:52:03.899Z,97.80
2018-10-17T18:54:33.564Z,97.90
2018-10-17T18:57:02.574Z,98.20
2018-10-17T18:59:32.085Z,98.30
2018-10-17T19:02:13.086Z,98.40
2018-10-17T19:04:48.257Z,98.60
2018-10-17T19:07:20.305Z,99.10
2018-10-17T19:09:49.835Z,99.30
2018-10-17T19:12:20.994Z,99.80
2018-10-17T19:14:51.358Z,99.90
2018-10-17T19:17:32.075Z,99.90
2018-10-17T19:20:01.423Z,99.90
2018-10-17T19:22:30.515Z,99.90
2018-10-17T19:25:00.759Z,99.90
2018-10-17T19:27:30.162Z,99.90
2018-10-17T19:29:58.755Z,99.90
2018-10-17T19:32:27.740Z,99.90
2018-10-17T19:34:56.604Z,99.90
2018-10-17T19:37:25.131Z,99.90
2018-10-17T19:39:53.743Z,99.90
2018-10-17T19:42:22.657Z,99.90
2018-10-17T19:44:56.836Z,99.90
2018-10-17T19:47:26.179Z,99.90
2018-10-17T19:49:54.757Z,99.90
2018-10-17T19:52:23.412Z,99.90
2018-10-17T19:54:52.886Z,99.90
2018-10-17T19:57:21.468Z,99.90
2018-10-17T19:59:50.166Z,99.90
2018-10-17T20:02:19.784Z,99.90
2018-10-17T20:04:50.448Z,99.90
2018-10-17T20:07:19.348Z,99.90
2018-10-17T20:09:48.569Z,99.90
2018-10-17T20:13:43.309Z,99.90
2018-10-17T20:16:12.305Z,99.90
2018-10-17T20:18:42.425Z,99.90
2018-10-17T20:21:16.526Z,99.90
2018-10-17T20:23:45.644Z,99.90
2018-10-17T20:26:15.408Z,99.90
2018-10-17T20:28:45.211Z,99.90
2018-10-17T20:31:14.121Z,99.90
2018-10-17T20:33:42.698Z,99.90
2018-10-17T20:36:11.613Z,99.90
2018-10-17T20:38:40.534Z,99.90
2018-10-17T20:41:09.564Z,99.90
2018-10-17T20:43:38.741Z,99.90
2018-10-17T20:46:07.230Z,99.90
2018-10-17T20:48:35.753Z,99.90
2018-10-17T20:51:04.985Z,99.90
2018-10-17T20:53:33.917Z,99.90
2018-10-17T20:56:03.224Z,99.90
2018-10-17T20:58:32.685Z,99.90
2018-10-17T21:01:01.285Z,99.90
2018-10-17T21:03:29.929Z,99.90
2018-10-17T21:05:59.154Z,99.90
2018-10-17T21:08:28.062Z,99.90
2018-10-17T21:10:56.824Z,99.90
2018-10-17T21:13:25.388Z,99.90
2018-10-17T21:15:53.731Z,99.90
2018-10-17T21:18:22.761Z,99.90
2018-10-17T21:20:51.962Z,99.90
2018-10-17T21:23:20.741Z,99.90
2018-10-17T21:25:49.368Z,99.90
2018-10-17T21:28:18.233Z,99.90
2018-10-17T21:30:46.733Z,99.90
2018-10-17T21:33:15.236Z,99.90
2018-10-17T21:35:49.291Z,99.90
2018-10-17T21:38:18.182Z,99.90
2018-10-17T21:40:47.217Z,99.90
2018-10-17T21:43:16.409Z,99.90
2018-10-17T21:45:44.951Z,99.90
2018-10-17T21:48:13.837Z,99.90
2018-10-17T21:50:42.920Z,99.90
2018-10-17T21:53:11.444Z,99.90
2018-10-17T21:55:39.961Z,99.90
2018-10-17T21:58:08.877Z,99.90
2018-10-17T22:00:37.410Z,99.90
2018-10-17T22:03:05.958Z,99.90
2018-10-17T22:05:34.501Z,99.90
2018-10-17T22:08:03.088Z,99.90
2018-10-17T22:10:32.265Z,99.90
2018-10-17T22:13:01.132Z,99.90
2018-10-17T22:15:32.413Z,99.90
2018-10-17T22:18:06.043Z,99.90
2018-10-17T22:20:34.660Z,99.90
2018-10-17T22:23:03.814Z,99.90
2018-10-17T22:25:32.644Z,99.90
2018-10-17T22:28:01.491Z,99.90
2018-10-17T22:30:30.334Z,99.90
2018-10-17T22:32:58.895Z,99.90
2018-10-17T22:35:28.065Z,99.90
2018-10-17T22:37:56.579Z,99.90
2018-10-17T22:40:25.453Z,99.90
2018-10-17T22:42:54.376Z,99.90
2018-10-17T22:45:23.470Z,99.90
2018-10-17T22:47:51.973Z,99.90
2018-10-17T22:50:20.488Z,99.90
2018-10-17T22:52:49.400Z,99.90
2018-10-17T22:55:17.904Z,99.90
2018-10-17T22:57:46.614Z,99.90
2018-10-17T23:00:15.130Z,99.90
2018-10-17T23:02:43.620Z,99.90
2018-10-17T23:05:12.465Z,99.90
2018-10-17T23:07:41.307Z,99.90
2018-10-17T23:10:09.830Z,99.90
2018-10-17T23:12:39.001Z,99.90
2018-10-17T23:15:11.098Z,99.90
2018-10-17T23:17:39.635Z,99.90
2018-10-17T23:20:08.261Z,99.90
2018-10-17T23:22:37.451Z,99.90
2018-10-17T23:25:07.108Z,99.90
2018-10-17T23:27:36.028Z,99.90
2018-10-17T23:30:05.238Z,99.90
2018-10-17T23:32:33.764Z,99.90
2018-10-17T23:35:02.629Z,99.90
2018-10-17T23:37:31.219Z,99.90
2018-10-17T23:39:59.747Z,99.90
2018-10-17T23:42:28.928Z,99.90
2018-10-17T23:44:57.772Z,99.90
2018-10-17T23:47:26.283Z,99.90
2018-10-17T23:49:55.160Z,99.90
2018-10-17T23:52:23.809Z,99.90
2018-10-17T23:54:52.674Z,99.90
2018-10-17T23:57:21.578Z,99.90
2018-10-17T23:59:50.426Z,99.90
